Quilino, Argentina
Current Conditions -  °F | °C
As of 12:00 AM on Friday 19 Dec 2014 (Local Time) from SACO Reporting Station
Clear Clear  
Wind Chill: 66°   Ceiling: Unl
Heat Index: 66°   Visibility: 6mi
Dew Point: 61°   Wind: 6mph
Humidity: 83%   Direction: 360°N
Pressure: 29.88"   Gusts: NA
Location:  30.21°S, 64.48°W
Report Text: SACO 190300Z 36005KT CAVOK 19/16 Q1012
Loading
Personal Weather Stations






























Interactive Weather Map New forecast layout! Learn more

10-Day Weather Forecast

Advertisements
Track Severe Weather on mobile